Time;durP1;ratioP1;P1;durP2;ratioP2;P2;SDS_P1;SDS_P2;PMS_P1;PMS_P2;Temp;Humidity;BMP_temperature;BMP_pressure;BME280_temperature;BME280_humidity;BME280_pressure;Samples;Min_cycle;Max_cycle;Signal;HPM_P1;HPM_P2
2022/12/03 00:01:36;;;;;;;34.20;21.98;;;;;;;1.34;100.00;66930.19;4967320;28;20145;-85
2022/12/03 00:04:02;;;;;;;38.97;24.55;;;;;;;1.31;100.00;66924.19;4982648;28;20204;-85
2022/12/03 00:06:28;;;;;;;35.90;22.17;;;;;;;;;;4967300;28;20042;-85
2022/12/03 00:08:53;;;;;;;43.50;24.25;;;;;;;;;;4966773;28;20105;-85
2022/12/03 00:11:18;;;;;;;36.72;19.08;;;;;;;;;;4966760;28;20039;-85
2022/12/03 00:13:44;;;;;;;41.95;23.90;;;;;;;1.32;100.00;66925.88;4967057;28;20049;-85
2022/12/03 00:16:09;;;;;;;39.22;24.35;;;;;;;1.32;100.00;66927.91;4968352;28;20502;-85
2022/12/03 00:18:35;;;;;;;40.47;22.15;;;;;;;1.33;100.00;66927.00;4966117;28;20093;-85
2022/12/03 00:21:00;;;;;;;38.75;20.73;;;;;;;1.33;100.00;66927.00;4981989;28;20047;-85
2022/12/03 00:23:25;;;;;;;38.67;23.20;;;;;;;1.34;100.00;66927.56;4964909;28;20073;-85
2022/12/03 00:25:51;;;;;;;42.50;24.02;;;;;;;1.34;100.00;66927.56;4966656;28;20039;-85
2022/12/03 00:28:16;;;;;;;41.90;24.30;;;;;;;1.33;100.00;66931.69;4968287;28;20466;-85
2022/12/03 00:30:41;;;;;;;39.88;20.95;;;;;;;;;;4966909;28;20057;-85
2022/12/03 00:33:07;;;;;;;42.17;24.23;;;;;;;1.37;100.00;66930.38;4968929;28;20046;-85
2022/12/03 00:35:32;;;;;;;42.20;25.63;;;;;;;1.30;100.00;66923.63;4967755;28;20103;-85
2022/12/03 00:37:58;;;;;;;37.72;21.52;;;;;;;1.34;100.00;66928.13;4966774;28;20065;-85
2022/12/03 00:40:23;;;;;;;40.67;23.90;;;;;;;1.36;100.00;66935.06;4968247;28;20120;-85
2022/12/03 00:42:48;;;;;;;40.05;23.15;;;;;;;1.34;100.00;66930.19;4966186;28;20408;-85
2022/12/03 00:45:14;;;;;;;43.90;25.75;;;;;;;;;;4967934;28;20066;-85
2022/12/03 00:47:39;;;;;;;43.60;26.73;;;;;;;1.32;100.00;66931.13;4967313;28;20712;-85
2022/12/03 00:50:05;;;;;;;43.40;24.98;;;;;;;1.33;100.00;66926.44;4966778;28;20035;-85
2022/12/03 00:52:30;;;;;;;40.28;22.23;;;;;;;1.35;100.00;66929.25;4964322;28;20469;-85
2022/12/03 00:54:56;;;;;;;39.90;24.95;;;;;;;1.34;100.00;66930.75;4959903;28;20058;-85
2022/12/03 00:57:21;;;;;;;41.75;25.48;;;;;;;1.35;100.00;66931.28;4963521;28;20046;-85
2022/12/03 00:59:46;;;;;;;41.80;26.08;;;;;;;;;;4969136;28;20047;-86
2022/12/03 01:02:12;;;;;;;38.13;20.77;;;;;;;1.36;100.00;66932.44;4967824;28;20038;-85
2022/12/03 01:04:37;;;;;;;41.33;24.80;;;;;;;1.38;100.00;66926.81;4977243;28;20073;-85
2022/12/03 01:07:03;;;;;;;38.55;23.27;;;;;;;;;;4966373;28;20035;-86
2022/12/03 01:09:28;;;;;;;39.80;23.27;;;;;;;1.33;100.00;66927.00;4969777;28;20049;-86
2022/12/03 01:11:53;;;;;;;41.35;22.52;;;;;;;;;;4966199;28;20039;-87
2022/12/03 01:14:19;;;;;;;41.42;23.92;;;;;;;;;;4968148;28;20043;-86
2022/12/03 01:16:45;;;;;;;39.45;23.25;;;;;;;1.34;100.00;66928.13;4972001;28;20042;-86
2022/12/03 01:19:14;;;;;;;38.78;23.27;;;;;;;;;;4970161;28;20109;-87
2022/12/03 01:21:40;;;;;;;35.58;20.02;;;;;;;1.31;100.00;66924.75;4967769;28;20043;-86
2022/12/03 01:24:05;;;;;;;42.15;22.33;;;;;;;;;;4969457;28;20062;-86
2022/12/03 01:26:31;;;;;;;39.92;23.52;;;;;;;;;;4965438;28;20494;-86
2022/12/03 01:28:56;;;;;;;38.42;20.25;;;;;;;1.34;100.00;66927.56;4966778;28;20133;-86
2022/12/03 01:34:05;;;;;;;37.90;23.38;;;;;;;;;;4967478;28;20081;-86
2022/12/03 01:36:30;;;;;;;33.33;19.67;;;;;;;1.34;100.00;66928.13;4957381;28;20042;-85
2022/12/03 01:38:56;;;;;;;39.95;23.45;;;;;;;1.35;100.00;66929.25;4967907;28;20506;-85
2022/12/03 01:41:23;;;;;;;38.75;23.50;;;;;;;1.33;100.00;66932.25;4968315;28;20065;-85
2022/12/03 01:43:50;;;;;;;40.60;21.05;;;;;;;1.33;100.00;66926.44;4964978;28;20106;-86
2022/12/03 01:46:16;;;;;;;34.72;20.38;;;;;;;;;;4974644;28;20351;-85
2022/12/03 01:48:42;;;;;;;36.17;20.92;;;;;;;1.31;100.00;66927.38;4960784;28;20496;-85
2022/12/03 01:51:08;;;;;;;35.42;20.92;;;;;;;1.31;100.00;66924.19;4969274;28;20085;-86
2022/12/03 01:53:33;;;;;;;40.22;23.38;;;;;;;1.29;100.00;66921.94;4971966;28;20316;-86
2022/12/03 01:55:58;;;;;;;40.47;19.42;;;;;;;1.29;100.00;66921.94;4963673;28;20035;-86
2022/12/03 01:58:27;;;;;;;37.60;19.33;;;;;;;1.28;100.00;66923.44;4960784;28;20057;-85
2022/12/03 02:00:52;;;;;;;41.23;22.33;;;;;;;;;;4968148;28;20034;-85
2022/12/03 02:03:22;;;;;;;39.08;23.70;;;;;;;1.30;100.00;66923.06;4967964;28;20773;-85
2022/12/03 02:05:47;;;;;;;37.95;22.50;;;;;;;;;;4981904;28;20252;-85
2022/12/03 02:08:34;;;;;;;38.63;20.05;;;;;;;1.28;100.00;66926.06;4949438;28;20459;-85
2022/12/03 02:11:23;;;;;;;37.55;18.95;;;;;;;1.24;100.00;66918.94;4949269;28;20046;-86
2022/12/03 02:13:53;;;;;;;43.30;23.00;;;;;;;1.23;100.00;66915.19;4966566;28;20043;-86
2022/12/03 02:16:19;;;;;;;35.85;21.55;;;;;;;1.23;100.00;66915.19;4967611;28;20387;-85
2022/12/03 02:18:44;;;;;;;39.88;24.77;;;;;;;1.20;100.00;66912.34;4980186;28;20039;-86
2022/12/03 02:21:13;;;;;;;36.50;21.20;;;;;;;1.25;100.00;66918.00;4965984;28;20058;-86
2022/12/03 02:23:45;;;;;;;40.47;22.03;;;;;;;1.23;100.00;66915.19;4963003;28;20090;-86
2022/12/03 02:26:11;;;;;;;38.90;22.48;;;;;;;1.22;100.00;66914.63;4972515;28;21254;-86
2022/12/03 02:28:37;;;;;;;41.40;25.00;;;;;;;;;;4971447;28;20039;-85
2022/12/03 02:31:04;;;;;;;40.47;23.45;;;;;;;1.21;100.00;66912.91;4966196;28;20067;-85
2022/12/03 02:33:29;;;;;;;41.60;22.85;;;;;;;;;;4974800;28;20506;-85
2022/12/03 02:35:54;;;;;;;41.35;22.60;;;;;;;1.17;100.00;66908.44;4965112;28;20097;-85
2022/12/03 02:38:23;;;;;;;40.85;22.35;;;;;;;1.18;100.00;66909.53;4957732;28;20133;-85
2022/12/03 02:40:54;;;;;;;41.92;21.17;;;;;;;1.17;100.00;66913.66;4966357;28;20447;-85
2022/12/03 02:43:20;;;;;;;41.15;22.77;;;;;;;;;;4964338;28;20126;-86
2022/12/03 02:45:49;;;;;;;42.15;22.20;;;;;;;1.16;100.00;66907.31;4967243;28;20043;-85
2022/12/03 02:48:44;;;;;;;44.58;26.70;;;;;;;1.15;100.00;66906.16;4969730;28;20490;-86
2022/12/03 02:51:10;;;;;;;45.45;25.88;;;;;;;1.17;100.00;66900.56;4966033;28;20514;-85
2022/12/03 02:53:43;;;;;;;42.90;24.88;;;;;;;1.12;100.00;66903.34;4967179;28;20034;-86
2022/12/03 02:56:11;;;;;;;40.10;22.73;;;;;;;1.13;100.00;66907.66;4971171;28;20045;-85
2022/12/03 02:58:36;;;;;;;46.17;24.67;;;;;;;;;;4971314;28;20042;-86
2022/12/03 03:01:03;;;;;;;45.83;23.52;;;;;;;1.15;100.00;66908.78;4966623;28;20347;-85
2022/12/03 03:03:31;;;;;;;44.33;21.35;;;;;;;1.13;100.00;66907.09;4974702;28;20053;-85
2022/12/03 03:05:57;;;;;;;38.78;20.52;;;;;;;;;;4981835;28;20288;-85
2022/12/03 03:08:24;;;;;;;42.08;22.35;;;;;;;1.13;100.00;66899.25;4980897;28;20083;-85
2022/12/03 03:10:50;;;;;;;45.53;24.65;;;;;;;1.16;100.00;66907.31;4970001;28;20053;-85
2022/12/03 03:13:17;;;;;;;48.58;24.58;;;;;;;1.09;100.00;66900.56;4974712;28;20034;-85
2022/12/03 03:15:43;;;;;;;47.70;27.50;;;;;;;;;;4982394;28;20058;-85
2022/12/03 03:18:10;;;;;;;48.88;27.20;;;;;;;1.08;100.00;66902.03;4971713;28;20042;-85
2022/12/03 03:20:36;;;;;;;45.40;25.85;;;;;;;1.09;100.00;66899.97;4976224;28;20126;-85
2022/12/03 03:23:12;;;;;;;45.75;23.80;;;;;;;1.07;100.00;66898.31;4965051;28;20043;-85
2022/12/03 03:25:39;;;;;;;42.33;21.95;;;;;;;1.08;100.00;66899.41;4962608;28;20054;-85
2022/12/03 03:28:06;;;;;;;48.83;26.42;;;;;;;1.07;100.00;66898.31;4980191;28;20442;-86
2022/12/03 03:30:32;;;;;;;39.13;19.95;;;;;;;1.07;100.00;66897.75;4971258;28;20456;-86
2022/12/03 03:32:58;;;;;;;44.75;27.15;;;;;;;1.08;100.00;66901.47;4972750;28;20517;-86
2022/12/03 03:35:24;;;;;;;46.53;24.90;;;;;;;1.07;100.00;66900.91;4977635;28;20061;-86
2022/12/03 03:37:52;;;;;;;42.33;20.45;;;;;;;1.01;100.00;66891.53;4968576;28;20039;-86
2022/12/03 03:40:19;;;;;;;38.92;21.17;;;;;;;1.00;100.00;66889.84;4967306;28;20130;-86
2022/12/03 03:42:45;;;;;;;39.67;21.38;;;;;;;1.03;100.00;66893.22;4967530;28;20094;-86
2022/12/03 03:45:10;;;;;;;43.38;24.35;;;;;;;1.00;100.00;66893.03;4968540;28;20043;-86
2022/12/03 03:47:36;;;;;;;39.45;21.58;;;;;;;1.01;100.00;66893.59;4960384;28;20039;-86
2022/12/03 03:50:01;;;;;;;41.10;22.00;;;;;;;1.03;100.00;66893.22;4951249;28;20251;-86
2022/12/03 03:52:27;;;;;;;36.85;18.73;;;;;;;1.01;100.00;66891.53;4950103;28;20415;-86
2022/12/03 03:54:52;;;;;;;38.70;20.48;;;;;;;1.02;100.00;66892.09;4953856;28;20081;-85
2022/12/03 03:57:18;;;;;;;43.38;22.55;;;;;;;0.99;100.00;66889.28;4987874;28;20046;-85
2022/12/03 03:59:43;;;;;;;40.03;21.25;;;;;;;1.01;100.00;66891.53;4972340;28;20047;-85
2022/12/03 04:02:19;;;;;;;40.60;22.95;;;;;;;0.99;100.00;66894.53;4968259;28;20046;-86
2022/12/03 04:04:45;;;;;;;43.67;22.15;;;;;;;1.01;100.00;66891.53;4969402;28;20490;-86
2022/12/03 04:07:10;;;;;;;39.05;18.00;;;;;;;;;;4969313;28;20055;-86
2022/12/03 04:09:35;;;;;;;34.78;17.85;;;;;;;1.01;100.00;66894.16;4970868;28;20118;-86
2022/12/03 04:14:44;;;;;;;37.47;18.58;;;;;;;1.01;100.00;66894.16;4971357;28;20133;-86
2022/12/03 04:17:10;;;;;;;37.28;19.85;;;;;;;;;;4970025;28;20042;-86
2022/12/03 04:19:35;;;;;;;35.97;19.50;;;;;;;1.02;100.00;66897.91;4970721;28;20146;-86
2022/12/03 04:24:44;;;;;;;34.97;19.95;;;;;;;;;;4966804;28;20061;-86
2022/12/03 04:29:53;;;;;;;39.88;19.80;;;;;;;0.97;100.00;66887.03;4963718;28;20570;-86
2022/12/03 04:37:47;;;;;;;43.53;22.33;;;;;;;0.96;100.00;66887.97;4949034;28;20078;-85
2022/12/03 04:42:55;;;;;;;37.67;18.92;;;;;;;;;;4967956;28;20466;-86
2022/12/03 04:45:21;;;;;;;40.63;21.90;;;;;;;0.98;100.00;66887.59;4974132;28;20143;-85
2022/12/03 04:47:46;;;;;;;40.00;19.13;;;;;;;;;;4969866;28;20143;-86
2022/12/03 04:50:11;;;;;;;41.42;21.17;;;;;;;0.97;100.00;66887.03;4969241;28;20477;-85
2022/12/03 04:52:36;;;;;;;48.00;24.73;;;;;;;;;;4964621;28;20422;-86
2022/12/03 04:55:02;;;;;;;50.90;23.17;;;;;;;0.99;100.00;66888.72;4968567;28;20448;-85
2022/12/03 04:57:27;;;;;;;45.15;24.30;;;;;;;0.96;100.00;66880.13;4984676;28;20403;-85
2022/12/03 04:59:53;;;;;;;41.63;24.60;;;;;;;0.96;100.00;66885.91;4958254;28;20137;-86
2022/12/03 05:02:18;;;;;;;46.33;25.77;;;;;;;0.94;100.00;66885.72;4950073;28;20098;-85
2022/12/03 05:04:43;;;;;;;44.13;25.23;;;;;;;0.90;100.00;66881.78;4955884;28;20046;-86
2022/12/03 05:07:09;;;;;;;45.00;23.90;;;;;;;0.91;100.00;66882.91;4972812;28;20498;-85
2022/12/03 05:09:34;;;;;;;50.33;23.10;;;;;;;0.96;100.00;66885.34;4968686;28;20035;-85
2022/12/03 05:12:00;;;;;;;46.67;25.13;;;;;;;0.90;100.00;66879.16;4972816;28;20050;-85
2022/12/03 05:14:25;;;;;;;53.97;26.58;;;;;;;0.89;100.00;66878.59;4961204;28;20042;-85
2022/12/03 05:16:50;;;;;;;56.25;26.52;;;;;;;0.84;100.00;66872.41;4968451;28;20129;-85
2022/12/03 05:19:16;;;;;;;50.90;26.08;;;;;;;0.88;100.00;66876.91;4969058;28;20050;-85
2022/12/03 05:21:41;;;;;;;54.80;25.05;;;;;;;0.90;100.00;66881.78;4970844;28;20046;-85
2022/12/03 05:24:06;;;;;;;55.42;29.50;;;;;;;;;;4977710;28;20043;-85
2022/12/03 05:26:31;;;;;;;63.00;31.08;;;;;;;;;;4968227;28;20043;-86
2022/12/03 05:28:57;;;;;;;58.65;26.23;;;;;;;0.85;100.00;66878.78;4967816;28;20043;-85
2022/12/03 05:31:22;;;;;;;63.97;23.48;;;;;;;;;;4977554;28;20727;-86
2022/12/03 05:33:47;;;;;;;66.70;31.77;;;;;;;;;;4966180;28;20040;-86
2022/12/03 05:36:13;;;;;;;63.95;33.00;;;;;;;0.79;100.00;66869.97;4966263;28;20037;-86
2022/12/03 05:38:38;;;;;;;61.83;27.58;;;;;;;;;;4971608;28;20054;-85
2022/12/03 05:42:52;;;;;;;64.95;31.13;;;;;;;;;;4967316;28;20039;-85
2022/12/03 05:43:49;;;;;;;60.60;27.92;;;;;;;0.82;100.00;66872.78;4967692;28;20380;-85
2022/12/03 05:46:14;;;;;;;63.30;31.95;;;;;;;0.77;100.00;66867.16;4967995;28;20339;-85
2022/12/03 05:48:39;;;;;;;61.83;33.05;;;;;;;0.73;100.00;66860.59;4983582;28;20126;-85
2022/12/03 05:51:05;;;;;;;67.13;34.47;;;;;;;0.76;100.00;66863.97;4969090;28;20073;-85
2022/12/03 05:53:30;;;;;;;58.78;28.88;;;;;;;0.76;100.00;66869.22;4967482;28;20089;-85
2022/12/03 05:55:55;;;;;;;55.83;24.75;;;;;;;;;;4979529;28;20235;-85
2022/12/03 05:58:21;;;;;;;65.57;32.17;;;;;;;;;;4987224;28;20409;-85
2022/12/03 06:00:46;;;;;;;66.03;32.17;;;;;;;0.76;100.00;66863.41;4975173;28;20447;-85
2022/12/03 06:03:11;;;;;;;64.80;25.73;;;;;;;;;;4950270;28;20071;-85
2022/12/03 06:05:37;;;;;;;59.95;27.20;;;;;;;0.77;100.00;66865.09;4954560;28;20041;-85
2022/12/03 06:08:02;;;;;;;59.10;26.77;;;;;;;0.77;100.00;66864.53;4984293;28;20130;-85
2022/12/03 06:10:28;;;;;;;62.50;26.98;;;;;;;0.74;100.00;66861.16;4986337;28;20358;-85
2022/12/03 06:12:54;;;;;;;65.80;31.73;;;;;;;0.74;100.00;66861.16;4974582;28;20070;-85
2022/12/03 06:15:19;;;;;;;64.38;30.08;;;;;;;0.74;100.00;66861.72;4979697;28;20774;-85
2022/12/03 06:17:44;;;;;;;63.25;30.08;;;;;;;;;;4966014;28;20034;-85
2022/12/03 06:20:15;;;;;;;54.67;25.02;;;;;;;0.71;100.00;66860.41;4973404;28;20407;-85
2022/12/03 06:22:41;;;;;;;56.20;23.42;;;;;;;0.68;100.00;66854.97;4953993;28;20045;-85
2022/12/03 06:25:08;;;;;;;56.08;25.38;;;;;;;0.70;100.00;66856.66;4953171;28;20039;-85
2022/12/03 06:27:33;;;;;;;63.28;29.75;;;;;;;0.72;100.00;66862.09;4966502;28;20089;-85
2022/12/03 06:29:58;;;;;;;65.28;30.55;;;;;;;;;;4981792;28;20248;-85
2022/12/03 06:32:24;;;;;;;67.70;29.35;;;;;;;0.73;100.00;66860.03;4965278;28;20043;-85
2022/12/03 06:34:49;;;;;;;66.10;27.83;;;;;;;;;;4968605;28;20051;-86
2022/12/03 06:37:14;;;;;;;69.97;32.70;;;;;;;0.64;100.00;66853.66;4973314;28;20046;-86
2022/12/03 06:39:40;;;;;;;73.10;33.00;;;;;;;0.63;100.00;66849.91;4962131;28;20113;-86
2022/12/03 06:42:05;;;;;;;65.13;31.00;;;;;;;0.62;100.00;66848.22;4963631;28;20045;-86
2022/12/03 06:44:31;;;;;;;64.53;26.25;;;;;;;0.61;100.00;66852.91;4971125;28;20047;-86
2022/12/03 06:46:56;;;;;;;68.35;26.13;;;;;;;;;;4969002;28;20569;-85
2022/12/03 06:49:21;;;;;;;69.80;31.73;;;;;;;0.59;100.00;66845.41;4968866;28;20050;-86
2022/12/03 06:51:47;;;;;;;69.53;30.00;;;;;;;0.55;100.00;66835.69;4979567;28;20046;-85
2022/12/03 06:54:12;;;;;;;74.88;32.05;;;;;;;0.52;100.00;66837.53;4978370;28;20037;-85
2022/12/03 06:56:37;;;;;;;72.65;31.35;;;;;;;0.53;100.00;66843.91;4971844;28;20039;-85
2022/12/03 06:59:03;;;;;;;71.60;31.65;;;;;;;0.53;100.00;66838.09;4970035;28;20046;-86
2022/12/03 07:01:28;;;;;;;64.07;28.15;;;;;;;0.49;100.00;66834.16;4974001;28;20054;-86
2022/12/03 07:03:53;;;;;;;68.75;29.30;;;;;;;0.52;100.00;66837.53;4981259;28;20323;-85
2022/12/03 07:06:19;;;;;;;69.38;32.05;;;;;;;0.57;100.00;66845.78;4950535;28;20491;-86
2022/12/03 07:08:44;;;;;;;57.83;23.17;;;;;;;0.51;100.00;66838.47;4953818;28;20054;-86
2022/12/03 07:13:53;;;;;;;57.67;25.58;;;;;;;0.51;100.00;66841.63;4972303;28;20050;-85
2022/12/03 07:16:18;;;;;;;64.45;29.40;;;;;;;0.51;100.00;66835.84;4972487;28;20042;-85
2022/12/03 07:18:44;;;;;;;58.63;26.50;;;;;;;0.51;100.00;66836.41;4986731;28;20423;-86
2022/12/03 07:21:09;;;;;;;54.50;22.23;;;;;;;;;;4967105;28;20043;-87
2022/12/03 07:23:34;;;;;;;66.15;29.70;;;;;;;0.51;100.00;66835.84;4964383;28;20066;-86
2022/12/03 07:25:59;;;;;;;55.58;25.25;;;;;;;0.49;100.00;66836.78;4971218;28;20043;-86
2022/12/03 07:28:25;;;;;;;63.72;27.23;;;;;;;0.52;100.00;66839.59;4984973;28;20092;-86
2022/12/03 07:30:50;;;;;;;58.47;21.88;;;;;;;;;;4970954;28;20383;-85
2022/12/03 07:33:15;;;;;;;57.45;24.63;;;;;;;0.53;100.00;66838.09;4966863;28;20073;-85
2022/12/03 07:35:41;;;;;;;55.00;23.85;;;;;;;0.51;100.00;66831.16;4966545;28;20050;-85
2022/12/03 07:38:06;;;;;;;58.28;27.05;;;;;;;0.52;100.00;66840.16;4970379;28;20510;-85
2022/12/03 07:40:31;;;;;;;68.13;29.80;;;;;;;0.49;100.00;66836.22;4988445;28;20130;-85
2022/12/03 07:42:56;;;;;;;64.50;26.88;;;;;;;;;;4970087;28;20085;-86
2022/12/03 07:45:22;;;;;;;66.40;26.33;;;;;;;0.45;100.00;66832.28;4966490;28;20049;-85
2022/12/03 07:47:47;;;;;;;61.28;24.80;;;;;;;0.50;100.00;66834.72;4973118;28;20039;-85
2022/12/03 07:50:13;;;;;;;64.47;29.42;;;;;;;0.45;100.00;66829.66;4958370;28;20039;-85
2022/12/03 07:52:38;;;;;;;60.28;24.02;;;;;;;0.44;100.00;66828.53;4984689;28;20050;-85
2022/12/03 07:55:04;;;;;;;59.42;27.90;;;;;;;0.45;100.00;66829.66;4969237;28;20039;-85
2022/12/03 07:57:29;;;;;;;63.05;29.08;;;;;;;0.45;100.00;66832.28;4971049;28;20042;-85
2022/12/03 07:59:54;;;;;;;63.45;27.13;;;;;;;0.45;100.00;66830.22;4966395;28;20406;-85
2022/12/03 08:02:20;;;;;;;62.70;28.58;;;;;;;0.43;100.00;66827.41;4970352;28;20403;-85
2022/12/03 08:04:45;;;;;;;61.90;23.77;;;;;;;0.36;100.00;66824.78;4969081;28;20106;-85
2022/12/03 08:07:10;;;;;;;62.08;26.80;;;;;;;0.40;100.00;66824.03;4969510;28;20094;-85
2022/12/03 08:09:37;;;;;;;58.17;24.05;;;;;;;;;;4969999;28;20034;-84
2022/12/03 08:12:13;;;;;;;65.55;29.35;;;;;;;0.35;100.00;66818.97;4970636;28;20039;-85
2022/12/03 08:14:38;;;;;;;56.78;25.65;;;;;;;0.39;100.00;66828.16;4953527;28;20046;-85
2022/12/03 08:17:10;;;;;;;56.65;26.67;;;;;;;0.34;100.00;66817.28;4965888;28;20043;-85
2022/12/03 08:19:35;;;;;;;60.25;28.10;;;;;;;0.31;100.00;66819.16;4971984;28;20418;-85
2022/12/03 08:22:00;;;;;;;61.63;26.73;;;;;;;;;;4971280;28;20039;-85
2022/12/03 08:24:26;;;;;;;57.72;27.80;;;;;;;0.28;100.00;66813.16;4961010;28;20130;-84
2022/12/03 08:26:51;;;;;;;57.58;25.80;;;;;;;0.32;100.00;66817.66;4974782;28;20645;-84
2022/12/03 08:29:18;;;;;;;55.45;25.63;;;;;;;0.25;100.00;66807.72;4983295;28;20039;-84
2022/12/03 08:31:50;;;;;;;56.50;26.77;;;;;;;0.28;100.00;66805.31;4962718;28;20538;-85
2022/12/03 08:34:27;;;;;;;56.80;26.75;;;;;;;0.29;100.00;66812.22;4967598;28;20054;-84
2022/12/03 08:36:58;;;;;;;55.45;26.98;;;;;;;;;;4967087;28;20067;-85
2022/12/03 08:39:32;;;;;;;56.47;23.45;;;;;;;;;;4962068;28;20261;-85
2022/12/03 08:45:38;;;;;;;58.55;26.63;;;;;;;0.29;100.00;66812.22;4966214;28;20113;-85
2022/12/03 08:48:22;;;;;;;;;;;;;;;0.26;100.00;66803.03;4960562;28;20047;-85
2022/12/03 08:50:48;;;;;;;54.42;25.40;;;;;;;0.16;100.00;66800.78;4961494;28;19914;-85
2022/12/03 08:53:36;;;;;;;58.35;26.95;;;;;;;0.16;100.00;66800.78;4959082;28;20522;-85
2022/12/03 08:56:03;;;;;;;51.20;21.37;;;;;;;;;;4956358;28;20035;-85
2022/12/03 08:58:39;;;;;;;53.17;25.15;;;;;;;;;;4964688;28;20503;-86
2022/12/03 09:01:15;;;;;;;49.63;21.08;;;;;;;;;;4964095;28;20604;-86
2022/12/03 09:03:47;;;;;;;49.63;25.02;;;;;;;;;;4963918;28;20426;-86
2022/12/03 09:06:13;;;;;;;53.70;24.85;;;;;;;0.23;100.00;66808.09;4961645;28;20050;-86
2022/12/03 09:08:38;;;;;;;47.95;20.02;;;;;;;0.28;100.00;66811.09;4960606;28;20407;-86
2022/12/03 09:11:04;;;;;;;52.30;20.33;;;;;;;0.22;100.00;66804.34;4961653;28;20042;-86
2022/12/03 09:13:29;;;;;;;53.88;24.50;;;;;;;0.22;100.00;66807.53;4961078;28;20522;-87
2022/12/03 09:15:54;;;;;;;51.92;23.17;;;;;;;0.27;100.00;66812.59;4958187;28;20101;-86
2022/12/03 09:18:20;;;;;;;50.20;22.85;;;;;;;0.26;100.00;66808.28;4959812;28;20042;-86
2022/12/03 09:20:45;;;;;;;58.63;26.48;;;;;;;0.25;100.00;66807.16;4963392;28;20398;-86
2022/12/03 09:23:11;;;;;;;51.55;21.38;;;;;;;;;;4966597;28;20037;-85
2022/12/03 09:25:36;;;;;;;54.97;22.70;;;;;;;0.24;100.00;66811.28;4967378;28;20383;-85
2022/12/03 09:28:01;;;;;;;55.85;27.23;;;;;;;0.19;100.00;66806.78;4963326;28;20035;-86
2022/12/03 09:30:27;;;;;;;55.72;27.23;;;;;;;0.21;100.00;66803.78;4970607;28;20062;-86
2022/12/03 09:32:52;;;;;;;60.00;28.52;;;;;;;0.21;100.00;66803.78;4964758;28;20062;-86
2022/12/03 09:35:17;;;;;;;60.08;29.02;;;;;;;0.21;100.00;66805.84;4968516;28;20054;-87
2022/12/03 09:37:43;;;;;;;59.22;27.23;;;;;;;0.24;100.00;66808.66;4967347;28;20541;-86
2022/12/03 09:40:09;;;;;;;62.45;29.08;;;;;;;0.19;100.00;66801.53;4965401;28;20047;-86
2022/12/03 09:42:35;;;;;;;64.70;28.95;;;;;;;0.21;100.00;66806.41;4970745;28;20056;-86
2022/12/03 09:45:04;;;;;;;56.90;26.13;;;;;;;0.27;100.00;66809.41;4964931;28;20038;-86
2022/12/03 09:47:29;;;;;;;63.50;28.70;;;;;;;;;;4967048;28;20062;-84
2022/12/03 09:49:56;;;;;;;68.82;27.25;;;;;;;0.21;100.00;66806.41;4967964;28;20039;-84
2022/12/03 09:52:26;;;;;;;72.53;32.00;;;;;;;0.18;100.00;66800.41;4973523;28;20095;-84
2022/12/03 09:54:51;;;;;;;70.65;31.08;;;;;;;0.16;100.00;66800.22;4977856;28;20053;-84
2022/12/03 09:57:17;;;;;;;69.30;29.90;;;;;;;0.17;100.00;66799.31;4977670;28;20031;-84
2022/12/03 09:59:43;;;;;;;76.88;29.15;;;;;;;0.19;100.00;66796.31;4966867;28;20043;-84
2022/12/03 10:02:20;;;;;;;78.13;31.92;;;;;;;0.18;100.00;66800.41;4978601;28;20089;-84
2022/12/03 10:04:46;;;;;;;63.58;28.88;;;;;;;0.20;100.00;66805.28;4962577;28;20058;-84
2022/12/03 10:07:11;;;;;;;74.55;30.95;;;;;;;0.20;100.00;66802.09;4962801;28;20127;-84
2022/12/03 10:09:37;;;;;;;75.95;31.35;;;;;;;0.21;100.00;66798.56;4970028;28;20090;-84
2022/12/03 10:12:02;;;;;;;69.35;30.23;;;;;;;0.21;100.00;66803.22;4973986;28;20047;-84
2022/12/03 10:14:28;;;;;;;65.03;27.88;;;;;;;;;;4971862;28;20151;-84
2022/12/03 10:16:54;;;;;;;69.82;28.55;;;;;;;0.18;100.00;66800.41;4968027;28;20049;-84
2022/12/03 10:19:22;;;;;;;70.43;27.83;;;;;;;;;;4984928;28;20054;-84
2022/12/03 10:21:47;;;;;;;71.15;30.63;;;;;;;0.22;100.00;66807.53;4976628;28;20047;-84
2022/12/03 10:24:15;;;;;;;73.07;28.40;;;;;;;0.22;100.00;66806.97;4982752;28;20045;-83
2022/12/03 10:26:41;;;;;;;80.87;33.77;;;;;;;;;;4974285;28;20055;-84
2022/12/03 10:29:17;;;;;;;77.35;29.08;;;;;;;;;;4956603;28;20394;-83
2022/12/03 10:31:42;;;;;;;79.65;35.97;;;;;;;;;;4958480;28;20071;-84
2022/12/03 10:34:08;;;;;;;69.95;26.80;;;;;;;0.24;100.00;66806.03;4969676;28;20046;-83
2022/12/03 10:36:34;;;;;;;72.15;28.23;;;;;;;0.24;100.00;66808.66;4970785;28;20047;-83
2022/12/03 10:39:09;;;;;;;79.05;30.05;;;;;;;0.24;100.00;66811.84;4971790;28;20119;-84
2022/12/03 10:41:36;;;;;;;74.88;26.55;;;;;;;;;;4966659;28;20180;-84
2022/12/03 10:44:20;;;;;;;67.03;26.67;;;;;;;0.17;100.00;66804.53;4973431;28;20126;-84
2022/12/03 10:47:04;;;;;;;78.97;31.77;;;;;;;0.26;100.00;66816.13;4976027;28;20147;-83
2022/12/03 10:49:30;;;;;;;87.35;33.88;;;;;;;0.27;100.00;66812.03;4974697;28;20043;-83
2022/12/03 10:51:55;;;;;;;80.68;33.50;;;;;;;0.28;100.00;66810.53;4982040;28;20050;-84
2022/12/03 10:54:24;;;;;;;80.47;36.13;;;;;;;0.26;100.00;66811.47;4977213;28;20039;-83
2022/12/03 10:56:50;;;;;;;72.13;29.95;;;;;;;;;;4963258;28;20043;-83
2022/12/03 10:59:20;;;;;;;73.20;31.38;;;;;;;0.22;100.00;66807.53;4966849;28;20079;-83
2022/12/03 11:01:46;;;;;;;81.47;34.05;;;;;;;0.27;100.00;66809.41;4971995;28;20122;-83
2022/12/03 11:04:27;;;;;;;65.65;26.13;;;;;;;0.27;100.00;66812.03;4973974;28;20631;-83
2022/12/03 11:06:52;;;;;;;79.63;35.13;;;;;;;;;;4972509;28;20450;-83
2022/12/03 11:09:27;;;;;;;73.07;28.67;;;;;;;0.28;100.00;66811.09;4967252;28;20045;-83
2022/12/03 11:11:53;;;;;;;74.38;33.28;;;;;;;0.25;100.00;66810.34;4973423;28;20042;-83
2022/12/03 11:14:56;;;;;;;78.70;34.88;;;;;;;0.26;100.00;66808.28;4961552;28;20118;-83
2022/12/03 11:17:59;;;;;;;70.97;33.28;;;;;;;0.27;100.00;66809.97;4962291;28;20050;-83
2022/12/03 11:20:24;;;;;;;76.53;33.25;;;;;;;0.24;100.00;66809.22;4964216;28;20231;-83
2022/12/03 11:22:51;;;;;;;70.07;29.05;;;;;;;0.25;100.00;66807.72;4971649;28;20722;-83
2022/12/03 11:25:26;;;;;;;68.13;26.67;;;;;;;;;;4971154;28;20122;-83
2022/12/03 11:28:10;;;;;;;74.50;33.53;;;;;;;0.29;100.00;66811.66;4965772;28;20105;-83
2022/12/03 11:30:48;;;;;;;66.88;26.73;;;;;;;0.32;100.00;66815.06;4975490;28;20050;-83
2022/12/03 11:33:22;;;;;;;67.10;30.38;;;;;;;0.31;100.00;66819.16;4972079;28;20050;-83
2022/12/03 11:36:03;;;;;;;70.60;33.00;;;;;;;0.31;100.00;66816.53;4967708;28;20034;-83
2022/12/03 11:38:49;;;;;;;72.88;34.30;;;;;;;0.27;100.00;66812.59;4954261;28;20462;-83
2022/12/03 11:41:33;;;;;;;69.35;31.00;;;;;;;0.30;100.00;66812.78;4966934;28;20910;-83
2022/12/03 11:44:02;;;;;;;66.45;28.15;;;;;;;0.28;100.00;66810.53;4974817;28;20478;-84
2022/12/03 11:46:45;;;;;;;75.05;35.47;;;;;;;0.17;100.00;66803.97;4970880;28;20775;-84
2022/12/03 11:49:20;;;;;;;72.07;32.78;;;;;;;;;;4978347;28;20046;-84
2022/12/03 11:51:46;;;;;;;76.25;33.35;;;;;;;0.22;100.00;66804.34;4983716;28;20047;-84
2022/12/03 11:54:15;;;;;;;77.72;32.30;;;;;;;0.28;100.00;66810.53;4964455;28;20397;-84
2022/12/03 11:56:43;;;;;;;76.80;34.67;;;;;;;;;;4967498;28;20043;-84
2022/12/03 11:59:12;;;;;;;73.72;30.95;;;;;;;0.35;100.00;66823.66;4969788;28;20050;-83
2022/12/03 12:01:38;;;;;;;;;;;;;;;0.31;100.00;66816.53;4972721;28;20075;-83
2022/12/03 12:04:05;;;;;;;70.75;31.55;;;;;;;0.28;100.00;66811.09;4972632;28;19918;-83
2022/12/03 12:06:42;;;;;;;74.47;31.50;;;;;;;0.33;100.00;66816.72;4981743;28;20047;-83
2022/12/03 12:09:08;;;;;;;70.63;30.73;;;;;;;0.33;100.00;66816.16;4971998;28;20047;-83
2022/12/03 12:11:35;;;;;;;64.72;28.92;;;;;;;;;;4971766;28;20545;-83
2022/12/03 12:14:05;;;;;;;72.97;33.08;;;;;;;0.31;100.00;66813.91;4971591;28;20038;-83
2022/12/03 12:16:36;;;;;;;61.83;30.08;;;;;;;;;;4970908;28;20402;-83
2022/12/03 12:19:26;;;;;;;63.30;31.45;;;;;;;0.27;100.00;66812.59;4963620;28;20039;-83
2022/12/03 12:21:52;;;;;;;62.22;24.98;;;;;;;;;;4962526;28;20031;-83